El Campo, TX (77437)

7:03 PM CDT on July 22, 2014 (GMT -0500)
FM1160 (KTXLOUIS2) Elev 105 ft | 29.20 °N, 96.40 °W | Change Station

Current weather conditions updated 3 minutes ago

Partly Cloudy
Partly Cloudy
92.5 °F
Feels Like 106 °F
N
-
Wind Variable Wind from North

Tomorrow is forecast to be Cooler than today. Scattered thunderstorms.

Today
High -- | Low -- °F
--% Chance of Precip.
Yesterday
High -- | Low -- °F
Precip. -- in
6:39 AM 8:23 PM
Waning Crescent, 14% visible
Pressure 29.97 in
Visibility 10.0 miles
Clouds Clear
Heat Index 106 °F
Dew Point 76 °F
Humidity 60%
Rainfall 0.00 in
Snow Depth Not available.
UV 1 out of 12
Pollen 3.80 out of 12
Air Quality Not available.
Flu Activity Not available.
METAR KARM 222355Z AUTO 17008KT 10SM CLR 33/23 A2997 RMK AO2 T03260227 10354 20326

More Conditions Fewer Conditions

Pressure 29.97 in
Visibility 10.0 miles
Clouds Clear
Heat Index 106 °F
Dew Point 76 °F
Humidity 60%
Rainfall 0.00 in
Snow Depth Not available.
UV 1 out of 12
Pollen 3.80 out of 12
Air Quality Not available.
Flu Activity Not available.
METAR KARM 222355Z AUTO 17008KT 10SM CLR 33/23 A2997 RMK AO2 T03260227 10354 20326

More Conditions Fewer Conditions

10-Day Weather Forecast

Almanac

Astronomy

Jul. 22, 2014 Rise Set
Actual Time 6:39 AM CDT 8:23 PM CDT
Civil Twilight 6:13 AM CDT 8:49 PM CDT
Nautical Twilight 5:42 AM CDT 9:20 PM CDT
Astronomical Twilight 5:08 AM CDT 9:53 PM CDT
Moon 3:10 AM CDT (7/22) 5:03 PM CDT (7/22)
Length of Visible Light 14h 35m
Length of Day
13h 43m
Tomorrow will be 1m 5s shorter.
Waning Crescent, 14% of the Moon is Illuminated
Today
Waning Crescent
Jul 26
New
Aug 3
First Quarter
Aug 10
Full
Aug 17
Last Quarter

Today's Extremes

State Highs State Lows

Community

WunderPhotos

Upload Photos

1,736,391 photos uploaded!

Nearby

Snow Depth

Station Depth Elevation
No new snow has been reported.

Earthquake Activity

City Distance Mag. Time & Date
No recent earthquake activity has been reported nearby.
Minimum magnitude displayed is 2.5.

Coastal Water Temperatures

Place Temperature
No Stations Reporting

Nearby Weather Stations

Station Location Temp. Heat Index Dew Point Humidity Wind Precip. Elev Updated Type
FM1160, Louise, TX 92.5 °F 106 °F 76 °F 60% North  at  - 0.00 in / hr 105 ft 6:59 PM CDT Normal
Ganado FM1157, Ganado, TX 92.3 °F 107 °F 77 °F 62% SSW  at  3.4 mph 0.00 in / hr 75 ft 7:02 PM CDT Rapid Fire
test station 2, Edna, TX 90.7 °F 107 °F 79 °F 68% SSE  at  10.7 mph 0.00 in / hr 51 ft 7:03 PM CDT Rapid Fire
MesoWest BLESNG , Blessing, TX 94 °F 90 °F - - North  at  - 0.00 in / hr 35 ft 5:15 PM CDT MADIS
K5HAS Lake Texana, Edna, TX 90.9 °F 104 °F 77 °F 64% South  at  6.9 mph 0.00 in / hr 51 ft 7:03 PM CDT Rapid Fire

Show More Stations Show Fewer Stations